Time;durP1;ratioP1;P1;durP2;ratioP2;P2;SDS_P1;SDS_P2;PMS_P1;PMS_P2;Temp;Humidity;BMP_temperature;BMP_pressure;BME280_temperature;BME280_humidity;BME280_pressure;Samples;Min_cycle;Max_cycle;Signal;HPM_P1;HPM_P2
2023/11/19 00:00:17;;;;;;;6.60;4.10;;;;;;;0.28;57.12;99945.02;107457;1254;73855;-40
2023/11/19 00:02:45;;;;;;;4.00;3.00;;;;;;;0.28;56.72;99945.61;107528;1254;67933;-40
2023/11/19 00:05:13;;;;;;;4.10;3.10;;;;;;;0.29;57.16;99941.65;107469;1254;72638;-40
2023/11/19 00:07:41;;;;;;;4.30;2.70;;;;;;;0.30;56.87;99936.41;107502;1257;60430;-40
2023/11/19 00:10:18;;;;;;;5.00;3.10;;;;;;;0.30;56.83;99931.98;107438;1254;59595;-40
2023/11/19 00:12:47;;;;;;;5.00;3.40;;;;;;;0.28;56.87;99931.75;107416;1255;73872;-40
2023/11/19 00:15:17;;;;;;;5.20;3.10;;;;;;;0.27;56.74;99937.61;107439;1260;67591;-40
2023/11/19 00:17:47;;;;;;;3.70;2.60;;;;;;;0.25;56.79;99940.07;107398;1254;71411;-40
2023/11/19 00:20:17;;;;;;;3.90;3.00;;;;;;;0.24;56.67;99940.93;107461;1254;60436;-40
2023/11/19 00:22:48;;;;;;;4.50;2.90;;;;;;;0.25;56.70;99943.91;107520;1254;60353;-40
2023/11/19 00:25:18;;;;;;;9.50;5.30;;;;;;;0.24;56.64;99944.84;106703;1254;1003687;-40
2023/11/19 00:27:45;;;;;;;9.60;5.60;;;;;;;0.24;56.77;99946.45;106750;1254;1003831;-40
2023/11/19 00:30:13;;;;;;;5.50;3.80;;;;;;;0.23;56.47;99947.41;106711;1259;1002839;-40
2023/11/19 00:32:42;;;;;;;25.80;13.00;;;;;;;0.21;56.48;99950.45;107498;1254;60323;-40
2023/11/19 00:35:15;;;;;;;12.30;7.30;;;;;;;0.20;56.75;99952.70;107359;1254;60309;-40
2023/11/19 00:37:45;;;;;;;8.10;5.00;;;;;;;0.21;56.73;99947.41;107474;1254;74216;-40
2023/11/19 00:43:12;;;;;;;9.10;5.40;;;;;;;0.21;56.81;99939.80;104223;1292;600383;-39
2023/11/19 00:45:40;;;;;;;6.70;4.50;;;;;;;0.23;56.92;99945.11;105871;1267;1002950;-39
2023/11/19 00:48:08;;;;;;;6.00;4.40;;;;;;;0.24;56.47;99941.47;106620;1269;59792;-39
2023/11/19 00:50:35;;;;;;;8.20;5.10;;;;;;;0.25;56.65;99942.20;106532;1267;72083;-40
2023/11/19 00:53:05;;;;;;;8.30;5.50;;;;;;;0.25;56.64;99939.80;106489;1268;66452;-40
2023/11/19 00:55:33;;;;;;;12.40;7.40;;;;;;;0.23;56.93;99937.80;106542;1269;71359;-40
2023/11/19 00:58:00;;;;;;;6.00;4.00;;;;;;;0.22;57.10;99935.30;106497;1266;178357;-40
2023/11/19 01:00:32;;;;;;;6.00;3.40;;;;;;;0.22;56.90;99934.66;106624;1265;59225;-40
2023/11/19 01:03:00;;;;;;;5.60;3.70;;;;;;;0.23;57.02;99933.27;106608;1265;72240;-40
2023/11/19 01:05:28;;;;;;;6.20;4.20;;;;;;;0.23;57.06;99933.27;106777;1264;67920;-40
2023/11/19 01:07:55;;;;;;;6.40;4.50;;;;;;;0.23;57.05;99933.23;106749;1265;71486;-40
2023/11/19 01:10:24;;;;;;;12.10;7.60;;;;;;;0.24;56.97;99931.61;106621;1265;59513;-40
2023/11/19 01:12:52;;;;;;;8.30;5.70;;;;;;;0.24;57.06;99928.35;106801;1264;59497;-40
2023/11/19 01:15:21;;;;;;;4.80;2.90;;;;;;;0.24;56.90;99923.45;106763;1266;71838;-40
2023/11/19 01:17:48;;;;;;;5.30;3.30;;;;;;;0.23;56.94;99923.95;106628;1266;66328;-40
2023/11/19 01:20:20;;;;;;;4.20;3.10;;;;;;;0.23;57.16;99914.72;106716;1266;71478;-40
2023/11/19 01:22:50;;;;;;;6.40;4.00;;;;;;;0.23;57.02;99912.68;106833;1264;59560;-40
2023/11/19 01:25:17;;;;;;;8.90;4.20;;;;;;;0.23;56.67;99913.54;106825;1264;59605;-40
2023/11/19 01:27:45;;;;;;;5.60;3.40;;;;;;;0.21;56.60;99908.00;106717;1264;72249;-40
2023/11/19 01:30:13;;;;;;;5.70;3.30;;;;;;;0.18;56.64;99907.92;106723;1268;66463;-40
2023/11/19 01:32:41;;;;;;;8.10;5.00;;;;;;;0.14;56.97;99909.76;106062;1266;1003004;-40
2023/11/19 01:35:08;;;;;;;10.90;6.30;;;;;;;0.12;56.99;99914.25;106817;1264;59735;-40
2023/11/19 01:37:36;;;;;;;10.80;5.80;;;;;;;0.11;57.31;99911.59;106663;1268;59585;-40
2023/11/19 01:40:06;;;;;;;12.30;6.60;;;;;;;0.12;57.33;99908.23;106651;1264;73106;-40
2023/11/19 01:42:40;;;;;;;9.40;5.10;;;;;;;0.12;57.31;99903.12;105903;1264;1002972;-40
2023/11/19 01:45:09;;;;;;;11.40;5.80;;;;;;;0.10;57.05;99901.09;106912;1265;71411;-40
2023/11/19 01:47:37;;;;;;;6.20;3.20;;;;;;;0.09;57.22;99901.86;106987;1264;59808;-40
2023/11/19 01:50:06;;;;;;;6.70;4.20;;;;;;;0.08;57.26;99905.33;106890;1263;59530;-40
2023/11/19 01:52:36;;;;;;;7.20;4.60;;;;;;;0.08;57.06;99901.44;106805;1260;72208;-40
2023/11/19 01:55:04;;;;;;;6.20;3.90;;;;;;;0.09;57.41;99896.63;106081;1265;1002895;-40
2023/11/19 01:57:32;;;;;;;5.30;3.80;;;;;;;0.09;57.61;99898.23;106797;1265;72723;-40
2023/11/19 01:59:59;;;;;;;6.00;3.60;;;;;;;0.10;57.35;99900.25;106811;1262;59672;-40
2023/11/19 02:02:27;;;;;;;6.40;3.90;;;;;;;0.12;57.38;99896.77;106820;1267;60113;-40
2023/11/19 02:04:55;;;;;;;7.70;4.60;;;;;;;0.15;57.57;99893.66;106878;1260;73039;-39
2023/11/19 02:07:22;;;;;;;6.80;4.50;;;;;;;0.17;57.64;99889.05;106870;1262;66492;-40
2023/11/19 02:09:50;;;;;;;6.20;4.80;;;;;;;0.17;57.38;99890.55;106774;1262;70189;-40
2023/11/19 02:12:20;;;;;;;5.30;3.80;;;;;;;0.18;57.50;99887.40;106900;1262;60075;-40
2023/11/19 02:14:48;;;;;;;4.70;3.40;;;;;;;0.17;57.44;99885.59;106885;1262;60034;-40
2023/11/19 02:17:45;;;;;;;6.60;3.80;;;;;;;0.16;57.52;99879.56;106872;1260;70609;-40
2023/11/19 02:20:14;;;;;;;4.90;3.80;;;;;;;0.17;57.76;99879.39;106796;1262;68062;-40
2023/11/19 02:22:44;;;;;;;5.30;3.90;;;;;;;0.17;57.55;99879.13;107182;1259;72654;-40
2023/11/19 02:25:25;;;;;;;6.80;4.70;;;;;;;0.15;57.40;99877.69;106971;1256;59603;-40
2023/11/19 02:27:55;;;;;;;6.40;3.40;;;;;;;0.13;57.67;99879.23;107091;1256;59393;-40
2023/11/19 02:30:26;;;;;;;6.30;4.80;;;;;;;0.10;57.45;99878.92;106350;1256;1003518;-39
2023/11/19 02:33:05;;;;;;;5.70;3.90;;;;;;;0.10;57.64;99879.23;107079;1256;67687;-41
2023/11/19 02:35:33;;;;;;;7.10;3.30;;;;;;;0.08;57.53;99874.51;107214;1256;72667;-40
2023/11/19 02:38:01;;;;;;;5.90;3.90;;;;;;;0.05;57.73;99876.39;107164;1256;59554;-40
2023/11/19 02:40:28;;;;;;;5.90;3.70;;;;;;;0.04;57.90;99872.46;107263;1256;60221;-40
2023/11/19 02:42:57;;;;;;;5.90;3.50;;;;;;;0.02;57.69;99867.52;107183;1260;73049;-40
2023/11/19 02:45:26;;;;;;;5.10;3.90;;;;;;;-0.02;57.74;99867.97;107215;1256;67588;-40
2023/11/19 02:47:54;;;;;;;7.30;4.10;;;;;;;-0.02;57.89;99868.29;107107;1256;71514;-40
2023/11/19 02:50:25;;;;;;;5.50;3.60;;;;;;;-0.02;57.94;99865.58;107276;1256;59723;-40
2023/11/19 02:52:56;;;;;;;5.80;3.70;;;;;;;0.02;58.42;99866.34;107229;1256;60292;-40
2023/11/19 02:55:24;;;;;;;4.90;3.50;;;;;;;0.06;58.25;99869.45;106545;1256;1003046;-40
2023/11/19 02:57:53;;;;;;;7.10;3.90;;;;;;;0.11;58.31;99864.67;107207;1256;67579;-40
2023/11/19 03:00:32;;;;;;;7.90;5.40;;;;;;;0.13;57.66;99862.59;107212;1259;72701;-40
2023/11/19 03:03:05;;;;;;;8.00;5.30;;;;;;;0.11;57.92;99863.33;107075;1256;60383;-40
2023/11/19 03:05:34;;;;;;;9.00;5.60;;;;;;;0.11;57.68;99866.48;107203;1260;60118;-40
2023/11/19 03:08:02;;;;;;;7.40;4.60;;;;;;;0.10;57.78;99860.20;107087;1256;73046;-40
2023/11/19 03:10:30;;;;;;;5.10;3.80;;;;;;;0.11;57.78;99854.64;107134;1261;66468;-40
2023/11/19 03:12:59;;;;;;;5.80;3.90;;;;;;;0.13;57.70;99856.67;107063;1256;72678;-40
2023/11/19 03:15:26;;;;;;;5.40;3.90;;;;;;;0.12;57.88;99858.00;107103;1258;59601;-40
2023/11/19 03:17:54;;;;;;;4.90;3.80;;;;;;;0.11;57.94;99856.09;107232;1261;59538;-40
2023/11/19 03:20:23;;;;;;;4.10;3.40;;;;;;;0.13;57.99;99850.58;107145;1256;73052;-40
2023/11/19 03:22:52;;;;;;;4.20;3.10;;;;;;;0.15;57.94;99847.74;107078;1256;66317;-40
2023/11/19 03:25:20;;;;;;;4.40;2.90;;;;;;;0.15;57.96;99846.98;107128;1256;71067;-40
2023/11/19 03:27:48;;;;;;;6.70;3.80;;;;;;;0.15;57.80;99838.62;107217;1257;59514;-40
2023/11/19 03:30:17;;;;;;;4.60;3.60;;;;;;;0.16;57.83;99825.45;107315;1256;60159;-40
2023/11/19 03:32:45;;;;;;;6.60;3.60;;;;;;;0.15;57.61;99822.73;107213;1256;73326;-40
2023/11/19 03:35:13;;;;;;;5.20;3.60;;;;;;;0.13;57.61;99815.19;107225;1256;67923;-40
2023/11/19 03:37:40;;;;;;;5.40;3.50;;;;;;;0.05;57.72;99806.56;107206;1256;72713;-40
2023/11/19 03:40:09;;;;;;;5.70;3.20;;;;;;;0.10;57.96;99809.13;107215;1256;59674;-40
2023/11/19 03:42:36;;;;;;;4.20;3.60;;;;;;;0.07;58.04;99802.06;107333;1256;60113;-40
2023/11/19 03:45:04;;;;;;;5.00;3.30;;;;;;;0.06;58.01;99798.17;106418;1259;1003661;-40
2023/11/19 03:47:32;;;;;;;5.00;3.20;;;;;;;0.05;57.67;99797.08;107122;1259;67566;-40
2023/11/19 03:50:00;;;;;;;4.90;3.30;;;;;;;0.03;57.58;99794.73;107046;1259;72780;-40
2023/11/19 03:52:27;;;;;;;5.60;3.50;;;;;;;-0.00;57.78;99792.73;107165;1260;59646;-40
2023/11/19 03:54:56;;;;;;;7.00;4.50;;;;;;;-0.02;58.04;99790.30;107220;1258;59743;-40
2023/11/19 03:57:24;;;;;;;5.30;3.70;;;;;;;-0.00;58.13;99784.96;107038;1257;71700;-40
2023/11/19 03:59:52;;;;;;;9.60;5.80;;;;;;;0.04;58.05;99789.83;106305;1258;1003819;-40
2023/11/19 04:02:20;;;;;;;5.60;4.00;;;;;;;0.06;57.76;99794.44;107015;1259;71466;-40
2023/11/19 04:04:48;;;;;;;9.20;4.90;;;;;;;0.07;57.51;99793.85;107142;1258;59632;-40
2023/11/19 04:07:15;;;;;;;6.10;4.70;;;;;;;0.04;57.40;99794.13;107028;1258;60095;-40
2023/11/19 04:09:43;;;;;;;8.70;4.90;;;;;;;0.07;57.74;99798.06;107005;1259;71820;-40
2023/11/19 04:12:10;;;;;;;7.80;4.90;;;;;;;0.07;57.73;99798.91;107031;1257;66303;-40
2023/11/19 04:14:38;;;;;;;7.20;4.10;;;;;;;0.08;57.62;99800.62;107021;1259;71436;-40
2023/11/19 04:17:05;;;;;;;8.80;4.20;;;;;;;0.10;57.78;99805.08;107011;1262;59568;-40
2023/11/19 04:19:33;;;;;;;5.00;3.20;;;;;;;0.13;57.79;99812.10;107045;1258;59981;-40
2023/11/19 04:22:01;;;;;;;6.60;3.80;;;;;;;0.14;57.76;99813.00;107017;1258;73002;-40
2023/11/19 04:24:29;;;;;;;5.10;3.30;;;;;;;0.15;57.87;99814.09;107027;1260;67660;-40
2023/11/19 04:26:57;;;;;;;10.20;5.30;;;;;;;0.15;57.67;99816.88;107037;1259;72791;-40
2023/11/19 04:29:25;;;;;;;9.40;5.50;;;;;;;0.14;57.71;99818.58;107079;1262;59510;-40
2023/11/19 04:31:53;;;;;;;7.10;4.30;;;;;;;0.15;58.06;99813.55;107090;1262;60129;-41
2023/11/19 04:34:22;;;;;;;7.10;4.10;;;;;;;0.18;57.92;99805.91;107048;1258;71769;-40
2023/11/19 04:36:49;;;;;;;14.20;6.20;;;;;;;0.20;57.76;99806.59;107057;1259;66848;-40
2023/11/19 04:39:18;;;;;;;10.10;5.30;;;;;;;0.21;57.87;99802.69;107204;1257;72717;-40
2023/11/19 04:41:48;;;;;;;11.00;5.40;;;;;;;0.23;57.82;99797.77;107065;1258;59708;-40
2023/11/19 04:44:16;;;;;;;;;;;;;;;0.26;57.68;99797.79;107058;1258;59556;-40
2023/11/19 04:46:44;;;;;;;6.90;5.00;;;;;;;0.25;57.52;99792.93;107098;1258;72083;-40
2023/11/19 04:49:12;;;;;;;6.90;4.10;;;;;;;0.22;57.10;99792.34;107081;1259;67673;-40
2023/11/19 04:51:46;;;;;;;5.60;3.90;;;;;;;-0.14;57.26;99738.92;107032;1262;72704;-40
2023/11/19 04:54:14;;;;;;;6.10;3.60;;;;;;;0.17;57.36;99782.20;107064;1262;60309;-40
2023/11/19 04:56:45;;;;;;;5.30;3.30;;;;;;;0.16;57.60;99784.60;107030;1258;60448;-40
2023/11/19 04:59:13;;;;;;;5.50;3.40;;;;;;;0.15;57.46;99784.92;107057;1259;73892;-40
2023/11/19 05:01:40;;;;;;;4.40;3.10;;;;;;;0.14;57.38;99781.91;107054;1259;67580;-40
2023/11/19 05:04:08;;;;;;;6.40;3.60;;;;;;;0.13;57.31;99783.31;106983;1257;71784;-40
2023/11/19 05:06:36;;;;;;;6.50;3.40;;;;;;;0.12;57.43;99785.34;107070;1259;60879;-40
2023/11/19 05:09:07;;;;;;;5.30;3.70;;;;;;;0.12;57.30;99782.82;107101;1259;60348;-40
2023/11/19 05:11:35;;;;;;;6.90;4.50;;;;;;;0.10;57.29;99783.91;106989;1257;75064;-40
2023/11/19 05:14:03;;;;;;;4.10;3.30;;;;;;;0.06;57.08;99782.71;107187;1258;67587;-40
2023/11/19 05:16:31;;;;;;;5.30;3.20;;;;;;;0.04;57.13;99782.74;107133;1260;71468;-40
2023/11/19 05:18:59;;;;;;;5.10;3.30;;;;;;;0.05;56.92;99786.50;107049;1259;60343;-40
2023/11/19 05:21:27;;;;;;;4.80;3.70;;;;;;;0.05;57.14;99791.25;107079;1259;60323;-40
2023/11/19 05:23:55;;;;;;;5.30;3.30;;;;;;;0.05;57.02;99797.86;107074;1259;73975;-40
2023/11/19 05:26:23;;;;;;;4.40;2.90;;;;;;;0.06;57.22;99803.14;107243;1260;66273;-40
2023/11/19 05:28:51;;;;;;;6.30;3.60;;;;;;;0.05;57.31;99796.33;106347;1262;1002935;-40
2023/11/19 05:31:19;;;;;;;4.90;3.40;;;;;;;0.07;57.19;99796.30;107079;1262;60329;-40
2023/11/19 05:33:47;;;;;;;4.10;3.00;;;;;;;0.06;57.23;99792.69;107073;1259;60338;-41
2023/11/19 05:36:14;;;;;;;4.50;3.20;;;;;;;0.05;57.22;99791.15;107027;1259;73860;-40
2023/11/19 05:38:41;;;;;;;4.80;3.50;;;;;;;0.04;57.10;99781.94;107018;1259;67959;-40
2023/11/19 05:41:09;;;;;;;4.00;2.80;;;;;;;0.02;57.21;99775.08;107051;1259;72767;-40
2023/11/19 05:43:37;;;;;;;4.50;3.30;;;;;;;-0.01;56.82;99763.38;107029;1259;60477;-40
2023/11/19 05:46:05;;;;;;;4.30;3.30;;;;;;;-0.05;56.99;99756.44;107080;1262;60393;-41
2023/11/19 05:48:46;;;;;;;5.10;3.30;;;;;;;-0.08;57.23;99751.54;107117;1257;73871;-40
2023/11/19 05:51:17;;;;;;;4.30;3.00;;;;;;;-0.09;57.29;99747.40;107050;1257;67592;-40
2023/11/19 05:53:45;;;;;;;6.30;4.10;;;;;;;-0.11;57.30;99747.36;107164;1258;71425;-40
2023/11/19 05:56:15;;;;;;;4.60;3.30;;;;;;;-0.11;57.55;99741.02;107055;1258;60480;-40
2023/11/19 05:58:44;;;;;;;;;;;;;;;-0.11;57.34;99735.64;107279;1259;60753;-40
2023/11/19 06:01:12;;;;;;;4.10;3.10;;;;;;;-0.13;57.60;99732.94;107228;1257;73850;-40
2023/11/19 06:03:40;;;;;;;3.80;2.80;;;;;;;-0.13;57.93;99735.86;107088;1257;66281;-40
2023/11/19 06:06:08;;;;;;;3.90;3.00;;;;;;;-0.13;57.44;99735.86;107212;1257;72652;-40
2023/11/19 06:08:37;;;;;;;4.00;3.10;;;;;;;-0.13;57.60;99733.89;107231;1261;60405;-40
2023/11/19 06:11:04;;;;;;;3.90;2.70;;;;;;;-0.13;57.57;99729.05;107083;1262;60428;-40
2023/11/19 06:13:32;;;;;;;4.40;3.30;;;;;;;-0.12;57.76;99728.61;107090;1258;73819;-40
2023/11/19 06:16:00;;;;;;;4.30;2.70;;;;;;;-0.14;57.35;99731.02;107010;1262;67609;-40
2023/11/19 06:18:27;;;;;;;4.30;3.00;;;;;;;-0.15;57.39;99731.48;107075;1261;72729;-41
2023/11/19 06:20:56;;;;;;;4.10;3.00;;;;;;;-0.14;57.34;99732.38;107029;1259;60643;-40
2023/11/19 06:23:23;;;;;;;4.80;2.80;;;;;;;-0.13;57.41;99730.11;107143;1257;60273;-40
2023/11/19 06:25:50;;;;;;;4.10;2.90;;;;;;;-0.12;57.35;99736.77;107082;1262;72956;-40
2023/11/19 06:28:18;;;;;;;4.30;3.20;;;;;;;-0.12;57.00;99734.95;107090;1257;66469;-40
2023/11/19 06:30:45;;;;;;;3.40;2.70;;;;;;;-0.12;57.05;99735.11;106292;1257;1002964;-40
2023/11/19 06:33:16;;;;;;;4.10;3.10;;;;;;;-0.23;57.07;99720.66;107035;1262;60445;-40
2023/11/19 06:35:43;;;;;;;4.80;3.10;;;;;;;-0.15;57.22;99732.27;107168;1262;60185;-40
2023/11/19 06:38:11;;;;;;;4.60;2.90;;;;;;;-0.14;57.22;99723.34;106975;1259;73125;-40
2023/11/19 06:40:41;;;;;;;4.70;3.20;;;;;;;-0.13;57.61;99721.05;107124;1261;68078;-40
2023/11/19 06:43:08;;;;;;;4.00;3.20;;;;;;;-0.11;57.75;99719.87;107191;1260;72453;-41
2023/11/19 06:45:36;;;;;;;4.40;3.40;;;;;;;-0.10;57.73;99719.73;107201;1257;60251;-40
2023/11/19 06:48:05;;;;;;;4.00;3.00;;;;;;;-0.08;57.78;99722.23;107080;1262;60307;-41
2023/11/19 06:50:33;;;;;;;4.30;3.20;;;;;;;-0.04;57.93;99714.25;107045;1262;73842;-40
2023/11/19 06:53:01;;;;;;;6.70;2.80;;;;;;;-0.02;57.43;99705.71;107131;1262;67235;-40
2023/11/19 06:55:28;;;;;;;3.90;2.90;;;;;;;-0.04;57.00;99698.48;107031;1262;72686;-40
2023/11/19 06:57:56;;;;;;;3.50;2.80;;;;;;;-0.10;56.53;99693.80;107071;1260;60557;-40
2023/11/19 07:00:23;;;;;;;3.60;2.40;;;;;;;-0.14;56.22;99701.88;106261;1257;1003798;-40
2023/11/19 07:02:51;;;;;;;4.30;2.90;;;;;;;-0.17;56.42;99711.34;106283;1260;1003680;-40
2023/11/19 07:05:19;;;;;;;3.30;2.30;;;;;;;-0.16;56.14;99716.98;107043;1258;67622;-40
2023/11/19 07:07:46;;;;;;;3.70;2.80;;;;;;;-0.13;56.17;99717.91;106991;1262;72682;-40
2023/11/19 07:10:15;;;;;;;3.80;2.80;;;;;;;-0.12;55.85;99715.45;107067;1257;60346;-40
2023/11/19 07:12:44;;;;;;;3.60;3.20;;;;;;;-0.13;55.69;99715.61;107127;1259;60396;-40
2023/11/19 07:15:12;;;;;;;5.00;2.30;;;;;;;-0.13;55.87;99714.76;107091;1259;73811;-40
2023/11/19 07:17:40;;;;;;;4.40;2.80;;;;;;;-0.09;56.09;99716.01;107039;1259;67738;-40
2023/11/19 07:20:09;;;;;;;4.80;2.80;;;;;;;-0.12;56.07;99699.56;107098;1262;74835;-40
2023/11/19 07:22:38;;;;;;;4.40;2.20;;;;;;;-0.05;54.99;99711.06;107137;1262;60557;-40
2023/11/19 07:25:06;;;;;;;5.90;2.90;;;;;;;-0.09;54.67;99701.13;107305;1262;60411;-40
2023/11/19 07:27:34;;;;;;;3.30;2.70;;;;;;;-0.12;54.90;99701.65;107198;1256;72580;-40
2023/11/19 07:30:01;;;;;;;3.60;2.50;;;;;;;-0.13;55.07;99706.77;106468;1260;1003019;-40
2023/11/19 07:32:29;;;;;;;4.40;2.90;;;;;;;-0.12;55.42;99710.55;107202;1257;71559;-40
2023/11/19 07:34:56;;;;;;;4.50;2.60;;;;;;;-0.06;55.34;99705.01;107219;1257;60422;-40
2023/11/19 07:37:24;;;;;;;5.50;2.80;;;;;;;0.01;55.22;99708.24;106397;1260;1003071;-40
2023/11/19 07:39:51;;;;;;;3.50;2.60;;;;;;;0.08;54.95;99708.34;107159;1261;73207;-40
2023/11/19 07:42:19;;;;;;;4.20;2.70;;;;;;;0.14;55.04;99710.09;107059;1258;67326;-39
2023/11/19 07:44:48;;;;;;;2.70;2.00;;;;;;;0.19;54.95;99711.31;107037;1259;72640;-40
2023/11/19 07:47:16;;;;;;;3.40;2.50;;;;;;;0.22;54.55;99705.48;107058;1260;60411;-40
2023/11/19 07:49:46;;;;;;;3.70;2.80;;;;;;;0.22;54.62;99706.11;107093;1258;59600;-39
2023/11/19 07:52:13;;;;;;;3.20;2.70;;;;;;;0.19;54.72;99697.25;106330;1258;1002502;-40
2023/11/19 07:54:44;;;;;;;3.70;2.70;;;;;;;0.22;54.98;99697.20;107111;1260;67578;-40
2023/11/19 07:57:11;;;;;;;3.20;2.50;;;;;;;0.26;54.98;99691.23;107102;1258;72679;-40
2023/11/19 07:59:39;;;;;;;2.80;2.40;;;;;;;0.29;54.47;99687.04;107081;1262;60229;-40
2023/11/19 08:02:07;;;;;;;3.50;2.70;;;;;;;0.32;54.92;99685.36;107083;1257;60356;-40
2023/11/19 08:04:35;;;;;;;4.40;2.60;;;;;;;0.32;54.24;99684.09;107107;1262;73853;-39
2023/11/19 08:07:03;;;;;;;4.00;2.80;;;;;;;0.28;53.97;99685.20;107089;1257;67911;-40
2023/11/19 08:09:30;;;;;;;3.90;2.70;;;;;;;0.26;54.15;99692.89;107089;1260;71720;-40
2023/11/19 08:11:58;;;;;;;3.20;2.40;;;;;;;0.17;53.99;99697.47;107190;1258;60441;-39
2023/11/19 08:14:26;;;;;;;4.30;3.00;;;;;;;0.06;53.96;99692.98;107229;1261;60438;-39
2023/11/19 08:16:53;;;;;;;6.80;2.70;;;;;;;-0.05;54.30;99688.30;106377;1257;1002889;-41
2023/11/19 08:19:21;;;;;;;4.40;2.90;;;;;;;-0.12;54.71;99682.41;107102;1261;67608;-40
2023/11/19 08:21:48;;;;;;;3.80;2.80;;;;;;;-0.15;54.76;99682.08;107079;1261;71371;-40
2023/11/19 08:24:16;;;;;;;4.10;2.90;;;;;;;-0.16;55.18;99681.11;107122;1263;60572;-40
2023/11/19 08:26:44;;;;;;;3.70;3.00;;;;;;;-0.40;55.25;99643.02;107170;1261;60387;-40
2023/11/19 08:29:11;;;;;;;4.10;3.10;;;;;;;-0.14;55.32;99677.30;107218;1258;72569;-40
2023/11/19 08:31:39;;;;;;;4.10;2.70;;;;;;;-0.12;55.21;99671.64;107145;1257;67567;-40
2023/11/19 08:34:08;;;;;;;4.00;3.00;;;;;;;-0.12;55.29;99669.99;106492;1257;1003765;-40
2023/11/19 08:36:36;;;;;;;5.10;3.20;;;;;;;-0.10;55.57;99661.92;107105;1257;60209;-40
2023/11/19 08:39:04;;;;;;;4.60;2.90;;;;;;;-0.06;55.69;99660.08;107135;1257;60445;-40
2023/11/19 08:41:31;;;;;;;4.10;2.70;;;;;;;-0.06;55.36;99655.75;107115;1262;73181;-40
2023/11/19 08:43:59;;;;;;;5.10;2.80;;;;;;;-0.12;55.26;99651.17;107216;1260;66623;-41
2023/11/19 08:46:27;;;;;;;3.90;2.90;;;;;;;-0.20;55.11;99651.09;107221;1258;72659;-40
2023/11/19 08:48:56;;;;;;;5.70;3.10;;;;;;;-0.26;55.64;99651.68;107125;1262;60351;-40
2023/11/19 08:51:25;;;;;;;4.60;3.00;;;;;;;-0.28;56.09;99651.48;107093;1262;60329;-40
2023/11/19 08:53:52;;;;;;;4.20;3.00;;;;;;;-0.26;55.86;99642.63;107137;1257;73861;-40
2023/11/19 08:56:20;;;;;;;4.00;3.10;;;;;;;-0.23;56.05;99638.70;107102;1257;67596;-40
2023/11/19 08:58:47;;;;;;;3.30;2.80;;;;;;;-0.18;56.16;99644.20;107195;1257;73152;-41
2023/11/19 09:01:15;;;;;;;7.50;3.60;;;;;;;-0.13;56.16;99640.64;106387;1262;1003776;-40
2023/11/19 09:03:42;;;;;;;5.00;3.10;;;;;;;-0.11;55.71;99639.92;107171;1262;60374;-40
2023/11/19 09:06:10;;;;;;;3.90;2.80;;;;;;;-0.08;55.67;99638.02;106443;1257;1003167;-40
2023/11/19 09:08:38;;;;;;;3.80;2.90;;;;;;;-0.07;55.68;99638.66;107039;1257;68249;-40
2023/11/19 09:11:09;;;;;;;5.30;3.10;;;;;;;-0.00;56.00;99645.89;107103;1258;73191;-40
2023/11/19 09:13:36;;;;;;;5.90;3.10;;;;;;;0.06;55.93;99647.48;106903;1262;59935;-40
2023/11/19 09:16:04;;;;;;;3.70;3.00;;;;;;;0.12;55.80;99648.89;107081;1262;60391;-40
2023/11/19 09:18:32;;;;;;;3.40;2.70;;;;;;;0.17;55.54;99650.50;107037;1261;73829;-40
2023/11/19 09:21:00;;;;;;;4.50;3.30;;;;;;;0.22;55.27;99648.71;107077;1263;67640;-40
2023/11/19 09:23:35;;;;;;;4.50;2.80;;;;;;;0.28;54.88;99648.25;107085;1257;71005;-40
2023/11/19 09:26:05;;;;;;;4.50;2.70;;;;;;;0.29;54.67;99647.58;106983;1263;60557;-41
2023/11/19 09:28:32;;;;;;;2.90;2.20;;;;;;;0.35;54.71;99648.73;107192;1262;60416;-40
2023/11/19 09:31:00;;;;;;;3.60;2.70;;;;;;;0.40;53.81;99651.93;107177;1258;73911;-41
2023/11/19 09:33:27;;;;;;;4.60;2.90;;;;;;;0.39;53.81;99648.84;107127;1257;66852;-40
2023/11/19 09:35:55;;;;;;;5.20;2.90;;;;;;;0.38;54.34;99647.59;107168;1257;72463;-40
2023/11/19 09:38:22;;;;;;;4.10;2.60;;;;;;;0.38;54.03;99644.33;107011;1257;60514;-40
2023/11/19 09:40:50;;;;;;;4.30;3.00;;;;;;;0.40;53.84;99645.90;107192;1257;59181;-40
2023/11/19 09:43:18;;;;;;;4.40;3.00;;;;;;;0.39;53.37;99644.75;107297;1257;72551;-40
2023/11/19 09:45:49;;;;;;;4.00;2.70;;;;;;;0.32;53.08;99650.79;107187;1260;67892;-40
2023/11/19 09:48:18;;;;;;;4.20;3.10;;;;;;;0.27;53.39;99653.59;107257;1262;72667;-40
2023/11/19 09:50:46;;;;;;;4.50;3.40;;;;;;;0.32;54.11;99650.73;107281;1261;60454;-40
2023/11/19 09:53:15;;;;;;;3.90;2.70;;;;;;;0.41;53.98;99652.45;106453;1257;1003523;-40
2023/11/19 09:55:43;;;;;;;5.50;3.10;;;;;;;0.46;53.62;99653.99;107260;1257;73886;-39
2023/11/19 09:58:12;;;;;;;4.30;3.10;;;;;;;0.46;53.70;99650.91;107178;1257;66297;-39
2023/11/19 10:00:40;;;;;;;5.10;2.70;;;;;;;0.49;53.42;99644.73;107113;1262;70600;-39
2023/11/19 10:03:07;;;;;;;3.80;2.70;;;;;;;0.49;52.88;99642.69;107095;1263;59602;-39
2023/11/19 10:05:35;;;;;;;3.70;2.90;;;;;;;0.45;52.55;99640.77;106378;1263;1003690;-39
2023/11/19 10:08:03;;;;;;;5.00;3.20;;;;;;;0.38;52.62;99643.20;107080;1261;72561;-39
2023/11/19 10:10:31;;;;;;;3.70;2.90;;;;;;;0.29;52.76;99641.94;107250;1257;67556;-39
2023/11/19 10:13:00;;;;;;;5.00;3.30;;;;;;;0.25;53.47;99641.02;107192;1262;71462;-39
2023/11/19 10:15:29;;;;;;;4.70;3.10;;;;;;;0.25;53.70;99639.15;107093;1262;61002;-39
2023/11/19 10:17:57;;;;;;;4.10;2.90;;;;;;;0.26;53.33;99639.56;106315;1263;1002730;-39
2023/11/19 10:20:25;;;;;;;3.50;2.90;;;;;;;0.20;52.74;99637.35;107056;1257;73829;-39
2023/11/19 10:22:57;;;;;;;3.90;3.00;;;;;;;0.13;52.89;99631.94;107149;1257;67895;-39
2023/11/19 10:25:26;;;;;;;4.00;2.90;;;;;;;0.09;53.12;99628.05;107150;1258;72737;-39
2023/11/19 10:27:55;;;;;;;4.20;2.90;;;;;;;0.07;53.05;99626.30;107287;1263;60436;-39
2023/11/19 10:30:26;;;;;;;4.30;3.00;;;;;;;0.08;53.23;99622.19;107255;1257;60308;-39
2023/11/19 10:33:20;;;;;;;4.70;2.80;;;;;;;0.10;53.20;99617.75;107240;1257;73265;-39
2023/11/19 10:35:58;;;;;;;5.20;3.20;;;;;;;0.09;53.04;99613.05;107209;1258;66264;-39
2023/11/19 10:38:28;;;;;;;3.80;2.90;;;;;;;0.12;53.44;99611.84;107201;1257;72832;-39
2023/11/19 10:40:56;;;;;;;5.50;3.70;;;;;;;0.17;53.34;99608.21;107085;1262;60536;-39
2023/11/19 10:43:24;;;;;;;6.20;3.60;;;;;;;0.22;53.37;99602.92;107083;1257;60270;-40
2023/11/19 10:45:52;;;;;;;4.40;3.30;;;;;;;0.29;52.87;99598.46;107215;1255;73871;-39
2023/11/19 10:48:21;;;;;;;3.80;3.00;;;;;;;0.32;52.60;99594.17;107338;1260;66848;-39
2023/11/19 10:50:52;;;;;;;4.50;3.60;;;;;;;0.28;52.45;99593.88;107323;1257;72670;-39
2023/11/19 10:53:19;;;;;;;3.60;2.70;;;;;;;0.26;52.72;99594.51;107250;1257;60383;-39
2023/11/19 10:55:47;;;;;;;4.00;2.60;;;;;;;0.25;52.54;99593.34;106343;1257;1002869;-39
2023/11/19 10:58:16;;;;;;;5.20;2.60;;;;;;;0.15;52.17;99576.15;107344;1257;74294;-39
2023/11/19 11:00:48;;;;;;;4.20;2.70;;;;;;;0.19;52.23;99579.56;107347;1257;66518;-39
2023/11/19 11:03:20;;;;;;;3.70;2.70;;;;;;;0.11;51.92;99571.98;107275;1258;72661;-39
2023/11/19 11:05:52;;;;;;;5.40;3.10;;;;;;;0.09;52.41;99569.94;107264;1257;60393;-39
2023/11/19 11:08:20;;;;;;;3.90;3.00;;;;;;;0.09;52.45;99566.94;107321;1256;60329;-39
2023/11/19 11:10:53;;;;;;;5.00;2.90;;;;;;;0.09;52.64;99566.35;107321;1257;72608;-39
2023/11/19 11:13:24;;;;;;;3.60;2.80;;;;;;;0.13;52.70;99562.25;107423;1257;69828;-37
2023/11/19 11:15:54;;;;;;;4.80;3.20;;;;;;;0.22;52.93;99560.42;107431;1257;71062;-37
2023/11/19 11:18:24;;;;;;;3.60;2.90;;;;;;;0.31;53.01;99560.74;107385;1256;60514;-38
2023/11/19 11:20:55;;;;;;;5.20;3.60;;;;;;;0.36;53.03;99565.69;107310;1257;61187;-38
2023/11/19 11:23:42;;;;;;;4.20;3.10;;;;;;;0.41;53.32;99564.88;107416;1257;73848;-39
2023/11/19 11:26:25;;;;;;;4.20;3.00;;;;;;;0.47;53.17;99563.35;107390;1257;66632;-39
2023/11/19 11:28:59;;;;;;;4.40;3.10;;;;;;;0.51;52.66;99553.86;107297;1257;72848;-39
2023/11/19 11:32:01;;;;;;;4.20;3.10;;;;;;;0.51;52.35;99544.30;107195;1256;60403;-39
2023/11/19 11:34:44;;;;;;;6.00;2.80;;;;;;;0.48;52.10;99534.90;107007;1258;60347;-39
2023/11/19 11:37:19;;;;;;;4.00;2.90;;;;;;;0.42;52.32;99535.95;107216;1257;73869;-39
2023/11/19 11:39:50;;;;;;;4.10;2.80;;;;;;;0.38;52.14;99537.55;107362;1256;67545;-39